sensor_id;sensor_type;location;lat;lon;timestamp;P1;durP1;ratioP1;P2;durP2;ratioP2
75234;SDS011;63817;51.228;-1.472;2023-02-04T00:01:37;5.43;;;3.50;;
75234;SDS011;63817;51.228;-1.472;2023-02-04T00:04:02;7.45;;;3.30;;
75234;SDS011;63817;51.228;-1.472;2023-02-04T00:06:28;6.55;;;3.47;;
75234;SDS011;63817;51.228;-1.472;2023-02-04T00:08:53;5.90;;;3.78;;
75234;SDS011;63817;51.228;-1.472;2023-02-04T00:11:18;8.93;;;4.13;;
75234;SDS011;63817;51.228;-1.472;2023-02-04T00:13:44;5.18;;;3.45;;
75234;SDS011;63817;51.228;-1.472;2023-02-04T00:16:09;5.63;;;3.47;;
75234;SDS011;63817;51.228;-1.472;2023-02-04T00:18:35;9.18;;;3.58;;
75234;SDS011;63817;51.228;-1.472;2023-02-04T00:21:00;8.65;;;4.10;;
75234;SDS011;63817;51.228;-1.472;2023-02-04T00:23:26;5.65;;;3.45;;
75234;SDS011;63817;51.228;-1.472;2023-02-04T00:25:51;8.88;;;4.13;;
75234;SDS011;63817;51.228;-1.472;2023-02-04T00:28:16;8.85;;;4.57;;
75234;SDS011;63817;51.228;-1.472;2023-02-04T00:30:42;10.90;;;4.75;;
75234;SDS011;63817;51.228;-1.472;2023-02-04T00:33:07;7.90;;;4.78;;
75234;SDS011;63817;51.228;-1.472;2023-02-04T00:35:33;13.93;;;4.80;;
75234;SDS011;63817;51.228;-1.472;2023-02-04T00:37:58;8.13;;;4.82;;
75234;SDS011;63817;51.228;-1.472;2023-02-04T00:40:24;7.53;;;4.97;;
75234;SDS011;63817;51.228;-1.472;2023-02-04T00:42:49;7.88;;;4.50;;
75234;SDS011;63817;51.228;-1.472;2023-02-04T00:45:14;7.90;;;4.80;;
75234;SDS011;63817;51.228;-1.472;2023-02-04T00:47:40;8.13;;;4.60;;
75234;SDS011;63817;51.228;-1.472;2023-02-04T00:50:05;10.57;;;4.32;;
75234;SDS011;63817;51.228;-1.472;2023-02-04T00:52:31;9.25;;;3.92;;
75234;SDS011;63817;51.228;-1.472;2023-02-04T00:54:57;8.65;;;4.50;;
75234;SDS011;63817;51.228;-1.472;2023-02-04T00:57:22;8.48;;;4.53;;
75234;SDS011;63817;51.228;-1.472;2023-02-04T00:59:48;6.85;;;4.38;;
75234;SDS011;63817;51.228;-1.472;2023-02-04T01:02:13;9.73;;;3.72;;
75234;SDS011;63817;51.228;-1.472;2023-02-04T01:04:39;6.25;;;3.60;;
75234;SDS011;63817;51.228;-1.472;2023-02-04T01:07:04;5.90;;;3.28;;
75234;SDS011;63817;51.228;-1.472;2023-02-04T01:09:29;7.40;;;3.72;;
75234;SDS011;63817;51.228;-1.472;2023-02-04T01:11:55;5.47;;;3.58;;
75234;SDS011;63817;51.228;-1.472;2023-02-04T01:14:20;6.68;;;3.40;;
75234;SDS011;63817;51.228;-1.472;2023-02-04T01:16:46;8.80;;;3.17;;
75234;SDS011;63817;51.228;-1.472;2023-02-04T01:19:11;4.20;;;3.58;;
75234;SDS011;63817;51.228;-1.472;2023-02-04T01:21:37;3.47;;;2.83;;
75234;SDS011;63817;51.228;-1.472;2023-02-04T01:24:02;6.28;;;2.80;;
75234;SDS011;63817;51.228;-1.472;2023-02-04T01:26:28;7.70;;;3.00;;
75234;SDS011;63817;51.228;-1.472;2023-02-04T01:28:53;5.93;;;2.67;;
75234;SDS011;63817;51.228;-1.472;2023-02-04T01:31:18;6.22;;;2.85;;
75234;SDS011;63817;51.228;-1.472;2023-02-04T01:33:44;3.90;;;2.85;;
75234;SDS011;63817;51.228;-1.472;2023-02-04T01:36:09;8.48;;;3.35;;
75234;SDS011;63817;51.228;-1.472;2023-02-04T01:38:35;6.80;;;3.53;;
75234;SDS011;63817;51.228;-1.472;2023-02-04T01:41:01;11.43;;;3.30;;
75234;SDS011;63817;51.228;-1.472;2023-02-04T01:43:27;8.27;;;3.42;;
75234;SDS011;63817;51.228;-1.472;2023-02-04T01:45:52;8.02;;;3.58;;
75234;SDS011;63817;51.228;-1.472;2023-02-04T01:48:18;9.75;;;4.00;;
75234;SDS011;63817;51.228;-1.472;2023-02-04T01:51:07;11.68;;;4.63;;
75234;SDS011;63817;51.228;-1.472;2023-02-04T01:53:36;12.32;;;3.83;;
75234;SDS011;63817;51.228;-1.472;2023-02-04T01:56:10;11.65;;;4.53;;
75234;SDS011;63817;51.228;-1.472;2023-02-04T01:58:40;12.30;;;4.30;;
75234;SDS011;63817;51.228;-1.472;2023-02-04T02:01:08;7.25;;;4.05;;
75234;SDS011;63817;51.228;-1.472;2023-02-04T02:03:36;13.82;;;4.22;;
75234;SDS011;63817;51.228;-1.472;2023-02-04T02:06:01;7.80;;;4.05;;
75234;SDS011;63817;51.228;-1.472;2023-02-04T02:08:27;7.45;;;3.95;;
75234;SDS011;63817;51.228;-1.472;2023-02-04T02:10:52;6.55;;;4.13;;
75234;SDS011;63817;51.228;-1.472;2023-02-04T02:13:18;14.88;;;4.22;;
75234;SDS011;63817;51.228;-1.472;2023-02-04T02:15:43;10.80;;;4.45;;
75234;SDS011;63817;51.228;-1.472;2023-02-04T02:18:09;12.82;;;4.75;;
75234;SDS011;63817;51.228;-1.472;2023-02-04T02:20:35;4.35;;;3.83;;
75234;SDS011;63817;51.228;-1.472;2023-02-04T02:26:04;7.72;;;4.82;;
75234;SDS011;63817;51.228;-1.472;2023-02-04T02:28:29;11.88;;;5.68;;
75234;SDS011;63817;51.228;-1.472;2023-02-04T02:30:55;13.57;;;6.10;;
75234;SDS011;63817;51.228;-1.472;2023-02-04T02:33:20;11.88;;;5.80;;
75234;SDS011;63817;51.228;-1.472;2023-02-04T02:35:46;14.18;;;6.07;;
75234;SDS011;63817;51.228;-1.472;2023-02-04T02:38:12;9.23;;;5.70;;
75234;SDS011;63817;51.228;-1.472;2023-02-04T02:40:38;11.32;;;5.88;;
75234;SDS011;63817;51.228;-1.472;2023-02-04T02:43:04;12.57;;;5.95;;
75234;SDS011;63817;51.228;-1.472;2023-02-04T02:45:30;9.90;;;5.13;;
75234;SDS011;63817;51.228;-1.472;2023-02-04T02:47:57;10.95;;;5.88;;
75234;SDS011;63817;51.228;-1.472;2023-02-04T02:50:25;11.38;;;5.57;;
75234;SDS011;63817;51.228;-1.472;2023-02-04T02:52:52;15.07;;;6.07;;
75234;SDS011;63817;51.228;-1.472;2023-02-04T02:55:18;15.65;;;6.57;;
75234;SDS011;63817;51.228;-1.472;2023-02-04T02:57:46;11.40;;;6.10;;
75234;SDS011;63817;51.228;-1.472;2023-02-04T03:02:42;18.52;;;6.97;;
75234;SDS011;63817;51.228;-1.472;2023-02-04T03:05:08;9.32;;;5.47;;
75234;SDS011;63817;51.228;-1.472;2023-02-04T03:07:34;12.23;;;6.18;;
75234;SDS011;63817;51.228;-1.472;2023-02-04T03:10:00;11.80;;;5.82;;
75234;SDS011;63817;51.228;-1.472;2023-02-04T03:12:26;12.50;;;5.75;;
75234;SDS011;63817;51.228;-1.472;2023-02-04T03:14:51;9.38;;;5.38;;
75234;SDS011;63817;51.228;-1.472;2023-02-04T03:17:17;15.20;;;5.38;;
75234;SDS011;63817;51.228;-1.472;2023-02-04T03:19:42;9.25;;;5.10;;
75234;SDS011;63817;51.228;-1.472;2023-02-04T03:22:08;7.55;;;5.10;;
75234;SDS011;63817;51.228;-1.472;2023-02-04T03:24:34;11.43;;;4.60;;
75234;SDS011;63817;51.228;-1.472;2023-02-04T03:27:00;11.88;;;4.50;;
75234;SDS011;63817;51.228;-1.472;2023-02-04T03:29:25;10.77;;;4.60;;
75234;SDS011;63817;51.228;-1.472;2023-02-04T03:31:51;10.32;;;5.50;;
75234;SDS011;63817;51.228;-1.472;2023-02-04T03:34:19;10.48;;;5.35;;
75234;SDS011;63817;51.228;-1.472;2023-02-04T03:36:45;11.77;;;4.50;;
75234;SDS011;63817;51.228;-1.472;2023-02-04T03:39:10;11.05;;;3.75;;
75234;SDS011;63817;51.228;-1.472;2023-02-04T03:41:35;8.13;;;3.80;;
75234;SDS011;63817;51.228;-1.472;2023-02-04T03:44:01;5.20;;;3.30;;
75234;SDS011;63817;51.228;-1.472;2023-02-04T03:46:26;8.00;;;3.45;;
75234;SDS011;63817;51.228;-1.472;2023-02-04T03:48:52;9.55;;;3.17;;
75234;SDS011;63817;51.228;-1.472;2023-02-04T03:51:18;16.27;;;3.95;;
75234;SDS011;63817;51.228;-1.472;2023-02-04T03:53:43;9.98;;;3.20;;
75234;SDS011;63817;51.228;-1.472;2023-02-04T03:56:08;7.47;;;3.30;;
75234;SDS011;63817;51.228;-1.472;2023-02-04T03:58:34;9.43;;;2.80;;
75234;SDS011;63817;51.228;-1.472;2023-02-04T04:01:00;3.95;;;2.65;;
75234;SDS011;63817;51.228;-1.472;2023-02-04T04:03:25;13.05;;;3.38;;
75234;SDS011;63817;51.228;-1.472;2023-02-04T04:05:50;7.13;;;3.03;;
75234;SDS011;63817;51.228;-1.472;2023-02-04T04:08:16;6.75;;;2.90;;
75234;SDS011;63817;51.228;-1.472;2023-02-04T04:10:41;6.28;;;2.30;;
75234;SDS011;63817;51.228;-1.472;2023-02-04T04:13:06;9.77;;;3.03;;
75234;SDS011;63817;51.228;-1.472;2023-02-04T04:15:32;7.15;;;2.63;;
75234;SDS011;63817;51.228;-1.472;2023-02-04T04:17:57;7.22;;;2.40;;
75234;SDS011;63817;51.228;-1.472;2023-02-04T04:20:23;7.45;;;2.60;;
75234;SDS011;63817;51.228;-1.472;2023-02-04T04:22:52;9.70;;;2.22;;
75234;SDS011;63817;51.228;-1.472;2023-02-04T04:25:17;10.48;;;2.50;;
75234;SDS011;63817;51.228;-1.472;2023-02-04T04:27:43;5.03;;;2.10;;
75234;SDS011;63817;51.228;-1.472;2023-02-04T04:30:09;7.93;;;2.20;;
75234;SDS011;63817;51.228;-1.472;2023-02-04T04:32:35;7.78;;;2.15;;
75234;SDS011;63817;51.228;-1.472;2023-02-04T04:35:00;5.90;;;1.98;;
75234;SDS011;63817;51.228;-1.472;2023-02-04T04:37:26;7.07;;;2.72;;
75234;SDS011;63817;51.228;-1.472;2023-02-04T04:39:51;8.13;;;2.08;;
75234;SDS011;63817;51.228;-1.472;2023-02-04T04:42:17;9.25;;;2.10;;
75234;SDS011;63817;51.228;-1.472;2023-02-04T04:44:42;5.28;;;1.80;;
75234;SDS011;63817;51.228;-1.472;2023-02-04T04:47:08;12.90;;;1.92;;
75234;SDS011;63817;51.228;-1.472;2023-02-04T04:49:33;5.57;;;1.73;;
75234;SDS011;63817;51.228;-1.472;2023-02-04T04:51:58;5.47;;;1.85;;
75234;SDS011;63817;51.228;-1.472;2023-02-04T04:54:24;2.97;;;1.73;;
75234;SDS011;63817;51.228;-1.472;2023-02-04T04:56:49;3.47;;;2.10;;
75234;SDS011;63817;51.228;-1.472;2023-02-04T04:59:15;8.02;;;2.25;;
75234;SDS011;63817;51.228;-1.472;2023-02-04T05:01:40;8.00;;;2.15;;
75234;SDS011;63817;51.228;-1.472;2023-02-04T05:04:05;6.40;;;2.55;;
75234;SDS011;63817;51.228;-1.472;2023-02-04T05:06:31;5.68;;;2.03;;
75234;SDS011;63817;51.228;-1.472;2023-02-04T05:08:57;6.50;;;2.10;;
75234;SDS011;63817;51.228;-1.472;2023-02-04T05:11:22;6.82;;;2.13;;
75234;SDS011;63817;51.228;-1.472;2023-02-04T05:13:48;6.32;;;2.00;;
75234;SDS011;63817;51.228;-1.472;2023-02-04T05:16:13;8.20;;;2.38;;
75234;SDS011;63817;51.228;-1.472;2023-02-04T05:18:39;6.93;;;1.60;;
75234;SDS011;63817;51.228;-1.472;2023-02-04T05:21:05;8.75;;;2.47;;
75234;SDS011;63817;51.228;-1.472;2023-02-04T05:23:31;9.63;;;2.25;;
75234;SDS011;63817;51.228;-1.472;2023-02-04T05:25:56;9.02;;;1.40;;
75234;SDS011;63817;51.228;-1.472;2023-02-04T05:28:22;10.07;;;3.00;;
75234;SDS011;63817;51.228;-1.472;2023-02-04T05:30:47;7.28;;;1.38;;
75234;SDS011;63817;51.228;-1.472;2023-02-04T05:33:13;4.68;;;1.25;;
75234;SDS011;63817;51.228;-1.472;2023-02-04T05:35:38;5.25;;;1.55;;
75234;SDS011;63817;51.228;-1.472;2023-02-04T05:38:04;7.57;;;1.75;;
75234;SDS011;63817;51.228;-1.472;2023-02-04T05:40:29;9.75;;;1.90;;
75234;SDS011;63817;51.228;-1.472;2023-02-04T05:42:55;9.57;;;1.90;;
75234;SDS011;63817;51.228;-1.472;2023-02-04T05:45:20;14.82;;;2.17;;
75234;SDS011;63817;51.228;-1.472;2023-02-04T05:47:46;8.75;;;1.80;;
75234;SDS011;63817;51.228;-1.472;2023-02-04T05:50:11;8.60;;;1.70;;
75234;SDS011;63817;51.228;-1.472;2023-02-04T05:52:36;14.05;;;2.00;;
75234;SDS011;63817;51.228;-1.472;2023-02-04T05:55:02;4.38;;;1.55;;
75234;SDS011;63817;51.228;-1.472;2023-02-04T05:57:28;5.07;;;1.67;;
75234;SDS011;63817;51.228;-1.472;2023-02-04T05:59:53;7.75;;;1.38;;
75234;SDS011;63817;51.228;-1.472;2023-02-04T06:02:19;11.70;;;1.67;;
75234;SDS011;63817;51.228;-1.472;2023-02-04T06:04:44;3.45;;;1.38;;
75234;SDS011;63817;51.228;-1.472;2023-02-04T06:07:09;6.97;;;1.85;;
75234;SDS011;63817;51.228;-1.472;2023-02-04T06:09:35;8.65;;;2.40;;
75234;SDS011;63817;51.228;-1.472;2023-02-04T06:12:00;4.18;;;1.85;;
75234;SDS011;63817;51.228;-1.472;2023-02-04T06:14:25;9.35;;;1.48;;
75234;SDS011;63817;51.228;-1.472;2023-02-04T06:16:51;6.28;;;2.05;;
75234;SDS011;63817;51.228;-1.472;2023-02-04T06:19:16;5.47;;;1.50;;
75234;SDS011;63817;51.228;-1.472;2023-02-04T06:21:42;8.77;;;1.98;;
75234;SDS011;63817;51.228;-1.472;2023-02-04T06:24:07;5.18;;;2.00;;
75234;SDS011;63817;51.228;-1.472;2023-02-04T06:26:33;10.30;;;1.70;;
75234;SDS011;63817;51.228;-1.472;2023-02-04T06:28:58;7.40;;;2.10;;
75234;SDS011;63817;51.228;-1.472;2023-02-04T06:31:24;6.55;;;1.92;;
75234;SDS011;63817;51.228;-1.472;2023-02-04T06:33:49;9.02;;;1.70;;
75234;SDS011;63817;51.228;-1.472;2023-02-04T06:36:14;6.70;;;2.00;;
75234;SDS011;63817;51.228;-1.472;2023-02-04T06:38:40;10.10;;;2.33;;
75234;SDS011;63817;51.228;-1.472;2023-02-04T06:41:05;7.60;;;1.95;;
75234;SDS011;63817;51.228;-1.472;2023-02-04T06:43:31;9.18;;;1.95;;
75234;SDS011;63817;51.228;-1.472;2023-02-04T06:45:56;6.65;;;1.90;;
75234;SDS011;63817;51.228;-1.472;2023-02-04T06:48:21;8.82;;;1.80;;
75234;SDS011;63817;51.228;-1.472;2023-02-04T06:50:47;5.25;;;1.48;;
75234;SDS011;63817;51.228;-1.472;2023-02-04T06:53:12;8.02;;;1.80;;
75234;SDS011;63817;51.228;-1.472;2023-02-04T06:55:38;13.50;;;2.10;;
75234;SDS011;63817;51.228;-1.472;2023-02-04T06:58:03;9.32;;;2.20;;
75234;SDS011;63817;51.228;-1.472;2023-02-04T07:00:29;5.68;;;1.77;;
75234;SDS011;63817;51.228;-1.472;2023-02-04T07:02:55;7.18;;;1.58;;
75234;SDS011;63817;51.228;-1.472;2023-02-04T07:05:22;5.75;;;1.40;;
75234;SDS011;63817;51.228;-1.472;2023-02-04T07:07:48;4.95;;;1.20;;
75234;SDS011;63817;51.228;-1.472;2023-02-04T07:10:14;3.92;;;1.50;;
75234;SDS011;63817;51.228;-1.472;2023-02-04T07:12:40;8.48;;;1.77;;
75234;SDS011;63817;51.228;-1.472;2023-02-04T07:15:06;9.35;;;1.73;;
75234;SDS011;63817;51.228;-1.472;2023-02-04T07:17:32;11.23;;;1.30;;
75234;SDS011;63817;51.228;-1.472;2023-02-04T07:19:57;4.68;;;1.20;;
75234;SDS011;63817;51.228;-1.472;2023-02-04T07:22:23;4.93;;;1.30;;
75234;SDS011;63817;51.228;-1.472;2023-02-04T07:24:48;7.32;;;1.75;;
75234;SDS011;63817;51.228;-1.472;2023-02-04T07:27:13;5.60;;;1.30;;
75234;SDS011;63817;51.228;-1.472;2023-02-04T07:29:39;10.55;;;1.30;;
75234;SDS011;63817;51.228;-1.472;2023-02-04T07:32:04;9.02;;;1.50;;
75234;SDS011;63817;51.228;-1.472;2023-02-04T07:34:30;7.40;;;1.50;;
75234;SDS011;63817;51.228;-1.472;2023-02-04T07:36:55;9.57;;;1.40;;
75234;SDS011;63817;51.228;-1.472;2023-02-04T07:39:20;6.65;;;1.40;;
75234;SDS011;63817;51.228;-1.472;2023-02-04T07:41:46;10.27;;;2.03;;
75234;SDS011;63817;51.228;-1.472;2023-02-04T07:44:11;8.90;;;1.35;;
75234;SDS011;63817;51.228;-1.472;2023-02-04T07:46:37;10.82;;;1.58;;
75234;SDS011;63817;51.228;-1.472;2023-02-04T07:49:02;14.98;;;1.75;;
75234;SDS011;63817;51.228;-1.472;2023-02-04T07:51:27;10.93;;;1.50;;
75234;SDS011;63817;51.228;-1.472;2023-02-04T07:53:54;8.73;;;2.08;;
75234;SDS011;63817;51.228;-1.472;2023-02-04T07:56:20;14.30;;;1.70;;
75234;SDS011;63817;51.228;-1.472;2023-02-04T07:58:45;10.25;;;1.40;;
75234;SDS011;63817;51.228;-1.472;2023-02-04T08:01:11;10.05;;;2.83;;
75234;SDS011;63817;51.228;-1.472;2023-02-04T08:03:36;12.45;;;1.83;;
75234;SDS011;63817;51.228;-1.472;2023-02-04T08:06:01;7.97;;;1.58;;
75234;SDS011;63817;51.228;-1.472;2023-02-04T08:08:27;5.85;;;1.60;;
75234;SDS011;63817;51.228;-1.472;2023-02-04T08:10:52;9.25;;;1.45;;
75234;SDS011;63817;51.228;-1.472;2023-02-04T08:13:18;8.27;;;1.20;;
75234;SDS011;63817;51.228;-1.472;2023-02-04T08:15:43;15.40;;;1.77;;
75234;SDS011;63817;51.228;-1.472;2023-02-04T08:18:08;8.77;;;1.58;;
75234;SDS011;63817;51.228;-1.472;2023-02-04T08:20:34;12.40;;;1.90;;
75234;SDS011;63817;51.228;-1.472;2023-02-04T08:22:59;9.05;;;1.80;;
75234;SDS011;63817;51.228;-1.472;2023-02-04T08:25:25;11.57;;;1.98;;
75234;SDS011;63817;51.228;-1.472;2023-02-04T08:27:50;13.55;;;2.10;;
75234;SDS011;63817;51.228;-1.472;2023-02-04T08:33:00;7.45;;;1.70;;
75234;SDS011;63817;51.228;-1.472;2023-02-04T08:35:25;10.63;;;2.25;;
75234;SDS011;63817;51.228;-1.472;2023-02-04T08:37:51;11.18;;;1.60;;
75234;SDS011;63817;51.228;-1.472;2023-02-04T08:40:16;6.38;;;1.67;;
75234;SDS011;63817;51.228;-1.472;2023-02-04T08:42:42;6.75;;;1.20;;
75234;SDS011;63817;51.228;-1.472;2023-02-04T08:45:07;8.30;;;1.67;;
75234;SDS011;63817;51.228;-1.472;2023-02-04T08:47:33;6.80;;;1.70;;
75234;SDS011;63817;51.228;-1.472;2023-02-04T08:49:58;5.75;;;2.10;;
75234;SDS011;63817;51.228;-1.472;2023-02-04T08:52:24;20.38;;;2.60;;
75234;SDS011;63817;51.228;-1.472;2023-02-04T08:54:49;8.27;;;2.15;;
75234;SDS011;63817;51.228;-1.472;2023-02-04T08:57:14;6.13;;;2.20;;
75234;SDS011;63817;51.228;-1.472;2023-02-04T08:59:40;6.25;;;1.90;;
75234;SDS011;63817;51.228;-1.472;2023-02-04T09:02:05;4.45;;;1.83;;
75234;SDS011;63817;51.228;-1.472;2023-02-04T09:04:31;8.85;;;2.03;;
75234;SDS011;63817;51.228;-1.472;2023-02-04T09:06:56;10.40;;;1.65;;
75234;SDS011;63817;51.228;-1.472;2023-02-04T09:09:22;5.15;;;1.48;;
75234;SDS011;63817;51.228;-1.472;2023-02-04T09:11:47;3.28;;;1.30;;
75234;SDS011;63817;51.228;-1.472;2023-02-04T09:14:12;9.93;;;1.77;;
75234;SDS011;63817;51.228;-1.472;2023-02-04T09:16:38;5.95;;;1.83;;
75234;SDS011;63817;51.228;-1.472;2023-02-04T09:19:03;11.50;;;2.00;;
75234;SDS011;63817;51.228;-1.472;2023-02-04T09:21:29;7.18;;;2.38;;
75234;SDS011;63817;51.228;-1.472;2023-02-04T09:23:55;4.30;;;1.80;;
75234;SDS011;63817;51.228;-1.472;2023-02-04T09:26:21;12.15;;;4.00;;
75234;SDS011;63817;51.228;-1.472;2023-02-04T09:28:46;7.25;;;2.20;;
75234;SDS011;63817;51.228;-1.472;2023-02-04T09:31:13;8.23;;;2.50;;
75234;SDS011;63817;51.228;-1.472;2023-02-04T09:33:38;8.25;;;1.85;;
75234;SDS011;63817;51.228;-1.472;2023-02-04T09:36:04;4.65;;;1.40;;
75234;SDS011;63817;51.228;-1.472;2023-02-04T09:38:30;5.55;;;2.00;;
75234;SDS011;63817;51.228;-1.472;2023-02-04T09:40:59;9.23;;;1.75;;
75234;SDS011;63817;51.228;-1.472;2023-02-04T09:43:27;7.63;;;1.50;;
75234;SDS011;63817;51.228;-1.472;2023-02-04T09:45:54;6.00;;;1.80;;
75234;SDS011;63817;51.228;-1.472;2023-02-04T09:48:21;6.38;;;1.60;;
75234;SDS011;63817;51.228;-1.472;2023-02-04T09:50:48;10.65;;;1.77;;
75234;SDS011;63817;51.228;-1.472;2023-02-04T09:53:14;7.32;;;1.58;;
75234;SDS011;63817;51.228;-1.472;2023-02-04T09:55:43;9.07;;;1.70;;
75234;SDS011;63817;51.228;-1.472;2023-02-04T09:58:17;6.75;;;1.33;;
75234;SDS011;63817;51.228;-1.472;2023-02-04T10:00:44;6.90;;;1.45;;
75234;SDS011;63817;51.228;-1.472;2023-02-04T10:03:15;10.45;;;1.77;;
75234;SDS011;63817;51.228;-1.472;2023-02-04T10:05:42;6.57;;;1.23;;
75234;SDS011;63817;51.228;-1.472;2023-02-04T10:08:12;6.82;;;1.20;;
75234;SDS011;63817;51.228;-1.472;2023-02-04T10:10:40;6.18;;;1.42;;
75234;SDS011;63817;51.228;-1.472;2023-02-04T10:13:07;9.60;;;1.25;;
75234;SDS011;63817;51.228;-1.472;2023-02-04T10:15:45;7.35;;;1.35;;
75234;SDS011;63817;51.228;-1.472;2023-02-04T10:18:12;9.07;;;1.65;;
75234;SDS011;63817;51.228;-1.472;2023-02-04T10:20:44;7.07;;;1.48;;
75234;SDS011;63817;51.228;-1.472;2023-02-04T10:23:09;5.20;;;1.35;;
75234;SDS011;63817;51.228;-1.472;2023-02-04T10:25:35;7.47;;;1.52;;
75234;SDS011;63817;51.228;-1.472;2023-02-04T10:28:01;7.78;;;1.73;;
75234;SDS011;63817;51.228;-1.472;2023-02-04T10:30:27;6.97;;;1.55;;
75234;SDS011;63817;51.228;-1.472;2023-02-04T10:33:19;6.93;;;2.22;;
75234;SDS011;63817;51.228;-1.472;2023-02-04T10:35:49;3.80;;;1.60;;
75234;SDS011;63817;51.228;-1.472;2023-02-04T10:38:16;13.45;;;1.60;;
75234;SDS011;63817;51.228;-1.472;2023-02-04T10:40:42;4.07;;;1.30;;
75234;SDS011;63817;51.228;-1.472;2023-02-04T10:45:34;7.30;;;1.80;;
75234;SDS011;63817;51.228;-1.472;2023-02-04T10:48:00;8.55;;;1.83;;
75234;SDS011;63817;51.228;-1.472;2023-02-04T10:50:26;5.22;;;1.30;;
75234;SDS011;63817;51.228;-1.472;2023-02-04T10:52:54;6.65;;;1.65;;
75234;SDS011;63817;51.228;-1.472;2023-02-04T10:55:45;5.07;;;1.40;;
75234;SDS011;63817;51.228;-1.472;2023-02-04T10:58:12;8.25;;;1.52;;
75234;SDS011;63817;51.228;-1.472;2023-02-04T11:00:41;13.10;;;1.63;;
75234;SDS011;63817;51.228;-1.472;2023-02-04T11:03:10;10.23;;;1.70;;
75234;SDS011;63817;51.228;-1.472;2023-02-04T11:05:43;6.93;;;1.20;;
75234;SDS011;63817;51.228;-1.472;2023-02-04T11:08:17;7.90;;;1.90;;
75234;SDS011;63817;51.228;-1.472;2023-02-04T11:10:57;3.97;;;1.20;;
75234;SDS011;63817;51.228;-1.472;2023-02-04T11:13:25;6.53;;;1.15;;
75234;SDS011;63817;51.228;-1.472;2023-02-04T11:16:23;9.50;;;2.00;;
75234;SDS011;63817;51.228;-1.472;2023-02-04T11:18:56;6.32;;;1.75;;
75234;SDS011;63817;51.228;-1.472;2023-02-04T11:26:40;10.27;;;1.52;;
75234;SDS011;63817;51.228;-1.472;2023-02-04T11:42:02;11.13;;;2.20;;
75234;SDS011;63817;51.228;-1.472;2023-02-04T11:44:28;15.05;;;2.78;;
75234;SDS011;63817;51.228;-1.472;2023-02-04T11:46:54;8.98;;;2.78;;
75234;SDS011;63817;51.228;-1.472;2023-02-04T11:49:21;8.13;;;1.77;;
75234;SDS011;63817;51.228;-1.472;2023-02-04T11:51:48;5.65;;;1.70;;
75234;SDS011;63817;51.228;-1.472;2023-02-04T11:54:14;7.25;;;1.67;;
75234;SDS011;63817;51.228;-1.472;2023-02-04T11:56:43;7.28;;;1.17;;
75234;SDS011;63817;51.228;-1.472;2023-02-04T11:59:11;7.28;;;1.38;;
75234;SDS011;63817;51.228;-1.472;2023-02-04T12:01:37;9.50;;;1.42;;
75234;SDS011;63817;51.228;-1.472;2023-02-04T12:04:04;11.35;;;1.85;;
75234;SDS011;63817;51.228;-1.472;2023-02-04T12:06:32;7.22;;;1.95;;
75234;SDS011;63817;51.228;-1.472;2023-02-04T12:11:49;7.38;;;1.60;;
75234;SDS011;63817;51.228;-1.472;2023-02-04T12:14:19;10.13;;;2.05;;
75234;SDS011;63817;51.228;-1.472;2023-02-04T12:16:45;8.30;;;2.08;;
75234;SDS011;63817;51.228;-1.472;2023-02-04T12:19:12;11.75;;;1.88;;
75234;SDS011;63817;51.228;-1.472;2023-02-04T12:21:38;10.38;;;1.20;;
75234;SDS011;63817;51.228;-1.472;2023-02-04T12:24:03;7.30;;;1.65;;
75234;SDS011;63817;51.228;-1.472;2023-02-04T12:26:29;10.15;;;1.50;;
75234;SDS011;63817;51.228;-1.472;2023-02-04T12:28:54;12.27;;;1.85;;
75234;SDS011;63817;51.228;-1.472;2023-02-04T12:31:20;7.93;;;1.50;;
75234;SDS011;63817;51.228;-1.472;2023-02-04T12:33:46;7.00;;;1.40;;
75234;SDS011;63817;51.228;-1.472;2023-02-04T12:36:11;9.30;;;1.90;;
75234;SDS011;63817;51.228;-1.472;2023-02-04T12:38:37;7.38;;;1.70;;
75234;SDS011;63817;51.228;-1.472;2023-02-04T12:41:02;13.63;;;1.70;;
75234;SDS011;63817;51.228;-1.472;2023-02-04T12:43:28;6.93;;;1.77;;
75234;SDS011;63817;51.228;-1.472;2023-02-04T12:46:02;5.38;;;2.25;;
75234;SDS011;63817;51.228;-1.472;2023-02-04T12:48:28;7.13;;;1.73;;
75234;SDS011;63817;51.228;-1.472;2023-02-04T12:50:53;10.23;;;1.80;;
75234;SDS011;63817;51.228;-1.472;2023-02-04T12:53:18;5.57;;;2.03;;
75234;SDS011;63817;51.228;-1.472;2023-02-04T12:55:44;4.70;;;1.63;;
75234;SDS011;63817;51.228;-1.472;2023-02-04T12:58:09;10.13;;;1.98;;
75234;SDS011;63817;51.228;-1.472;2023-02-04T13:00:35;11.15;;;2.45;;
75234;SDS011;63817;51.228;-1.472;2023-02-04T13:03:00;13.07;;;2.58;;
75234;SDS011;63817;51.228;-1.472;2023-02-04T13:05:26;11.18;;;2.22;;
75234;SDS011;63817;51.228;-1.472;2023-02-04T13:07:51;5.93;;;1.60;;
75234;SDS011;63817;51.228;-1.472;2023-02-04T13:10:17;10.77;;;2.10;;
75234;SDS011;63817;51.228;-1.472;2023-02-04T13:12:44;10.73;;;2.78;;
75234;SDS011;63817;51.228;-1.472;2023-02-04T13:15:09;6.50;;;1.92;;
75234;SDS011;63817;51.228;-1.472;2023-02-04T13:17:35;7.82;;;2.10;;
75234;SDS011;63817;51.228;-1.472;2023-02-04T13:20:00;9.15;;;2.03;;
75234;SDS011;63817;51.228;-1.472;2023-02-04T13:22:26;8.55;;;1.67;;
75234;SDS011;63817;51.228;-1.472;2023-02-04T13:24:51;8.85;;;2.15;;
75234;SDS011;63817;51.228;-1.472;2023-02-04T13:27:17;11.63;;;2.95;;
75234;SDS011;63817;51.228;-1.472;2023-02-04T13:29:42;6.07;;;1.65;;
75234;SDS011;63817;51.228;-1.472;2023-02-04T13:32:08;6.43;;;1.70;;
75234;SDS011;63817;51.228;-1.472;2023-02-04T13:34:34;13.38;;;2.08;;
75234;SDS011;63817;51.228;-1.472;2023-02-04T13:36:59;10.45;;;1.63;;
75234;SDS011;63817;51.228;-1.472;2023-02-04T13:39:25;12.48;;;2.10;;
75234;SDS011;63817;51.228;-1.472;2023-02-04T13:41:50;15.15;;;2.33;;
75234;SDS011;63817;51.228;-1.472;2023-02-04T13:44:15;9.32;;;2.28;;
75234;SDS011;63817;51.228;-1.472;2023-02-04T13:46:41;10.38;;;1.55;;
75234;SDS011;63817;51.228;-1.472;2023-02-04T13:49:06;7.82;;;2.05;;
75234;SDS011;63817;51.228;-1.472;2023-02-04T13:51:32;9.65;;;1.85;;
75234;SDS011;63817;51.228;-1.472;2023-02-04T13:53:57;12.18;;;2.65;;
75234;SDS011;63817;51.228;-1.472;2023-02-04T13:56:24;5.03;;;2.15;;
75234;SDS011;63817;51.228;-1.472;2023-02-04T13:58:50;8.07;;;2.45;;
75234;SDS011;63817;51.228;-1.472;2023-02-04T14:01:16;14.20;;;3.22;;
75234;SDS011;63817;51.228;-1.472;2023-02-04T14:03:41;5.68;;;2.03;;
75234;SDS011;63817;51.228;-1.472;2023-02-04T14:06:07;8.88;;;2.30;;
75234;SDS011;63817;51.228;-1.472;2023-02-04T14:08:32;13.50;;;3.20;;
75234;SDS011;63817;51.228;-1.472;2023-02-04T14:10:58;9.40;;;2.00;;
75234;SDS011;63817;51.228;-1.472;2023-02-04T14:13:23;5.15;;;1.95;;
75234;SDS011;63817;51.228;-1.472;2023-02-04T14:15:49;10.23;;;2.33;;
75234;SDS011;63817;51.228;-1.472;2023-02-04T14:18:14;11.40;;;1.73;;
75234;SDS011;63817;51.228;-1.472;2023-02-04T14:20:43;6.80;;;1.70;;
75234;SDS011;63817;51.228;-1.472;2023-02-04T14:23:09;5.00;;;1.20;;
75234;SDS011;63817;51.228;-1.472;2023-02-04T14:25:36;5.65;;;1.90;;
75234;SDS011;63817;51.228;-1.472;2023-02-04T14:28:02;9.65;;;2.45;;
75234;SDS011;63817;51.228;-1.472;2023-02-04T14:30:28;10.10;;;1.88;;
75234;SDS011;63817;51.228;-1.472;2023-02-04T14:32:54;3.63;;;1.40;;
75234;SDS011;63817;51.228;-1.472;2023-02-04T14:35:19;18.58;;;2.92;;
75234;SDS011;63817;51.228;-1.472;2023-02-04T14:37:45;6.57;;;1.70;;
75234;SDS011;63817;51.228;-1.472;2023-02-04T14:40:11;6.13;;;2.40;;
75234;SDS011;63817;51.228;-1.472;2023-02-04T14:42:37;8.75;;;1.90;;
75234;SDS011;63817;51.228;-1.472;2023-02-04T14:45:03;8.50;;;2.17;;
75234;SDS011;63817;51.228;-1.472;2023-02-04T14:47:30;9.82;;;1.85;;
75234;SDS011;63817;51.228;-1.472;2023-02-04T14:49:56;8.23;;;2.60;;
75234;SDS011;63817;51.228;-1.472;2023-02-04T14:52:21;9.15;;;2.25;;
75234;SDS011;63817;51.228;-1.472;2023-02-04T14:54:47;14.52;;;2.70;;
75234;SDS011;63817;51.228;-1.472;2023-02-04T14:57:12;10.32;;;2.70;;